createdAt,value
2022-09-07T00:00:04.856Z,100.00
2022-09-07T00:02:31.641Z,100.00
2022-09-07T00:04:58.384Z,100.00
2022-09-07T00:07:25.146Z,100.00
2022-09-07T00:09:51.855Z,100.00
2022-09-07T00:12:18.619Z,100.00
2022-09-07T00:14:45.382Z,100.00
2022-09-07T00:17:12.054Z,100.00
2022-09-07T00:19:38.835Z,100.00
2022-09-07T00:22:06.614Z,100.00
2022-09-07T00:24:33.370Z,100.00
2022-09-07T00:27:00.216Z,100.00
2022-09-07T00:29:26.947Z,100.00
2022-09-07T00:31:53.836Z,100.00
2022-09-07T00:34:20.604Z,100.00
2022-09-07T00:36:47.415Z,100.00
2022-09-07T00:39:14.144Z,100.00
2022-09-07T00:41:40.866Z,100.00
2022-09-07T00:44:44.703Z,100.00
2022-09-07T00:47:45.195Z,100.00
2022-09-07T00:50:30.812Z,100.00
2022-09-07T00:53:10.094Z,100.00
2022-09-07T00:55:38.655Z,100.00
2022-09-07T00:58:07.065Z,100.00
2022-09-07T01:00:35.423Z,100.00
2022-09-07T01:03:04.138Z,100.00
2022-09-07T01:05:59.004Z,100.00
2022-09-07T01:08:26.374Z,100.00
2022-09-07T01:10:53.182Z,100.00
2022-09-07T01:13:19.896Z,100.00
2022-09-07T01:16:01.629Z,100.00
2022-09-07T01:18:52.832Z,100.00
2022-09-07T01:21:32.444Z,100.00
2022-09-07T01:24:20.045Z,100.00
2022-09-07T01:26:55.976Z,100.00
2022-09-07T01:29:42.104Z,100.00
2022-09-07T01:32:22.492Z,100.00
2022-09-07T01:34:54.705Z,100.00
2022-09-07T01:37:33.736Z,100.00
2022-09-07T01:40:17.153Z,100.00
2022-09-07T01:42:56.412Z,100.00
2022-09-07T01:45:31.081Z,100.00
2022-09-07T01:48:02.961Z,100.00
2022-09-07T01:50:41.022Z,100.00
2022-09-07T01:53:23.751Z,100.00
2022-09-07T01:56:01.512Z,100.00
2022-09-07T01:58:33.720Z,100.00
2022-09-07T02:01:10.006Z,100.00
2022-09-07T02:03:49.731Z,100.00
2022-09-07T02:06:23.493Z,100.00
2022-09-07T02:08:58.545Z,100.00
2022-09-07T02:11:34.542Z,100.00
2022-09-07T02:14:23.996Z,100.00
2022-09-07T02:17:18.572Z,100.00
2022-09-07T02:20:03.662Z,100.00
2022-09-07T02:22:34.062Z,100.00
2022-09-07T02:25:05.818Z,100.00
2022-09-07T02:27:45.785Z,100.00
2022-09-07T02:30:13.163Z,100.00
2022-09-07T02:32:39.972Z,100.00
2022-09-07T02:35:07.443Z,100.00
2022-09-07T02:37:35.902Z,100.00
2022-09-07T02:40:02.953Z,100.00
2022-09-07T02:42:32.765Z,100.00
2022-09-07T02:45:00.801Z,100.00
2022-09-07T02:47:36.026Z,100.00
2022-09-07T02:50:41.325Z,100.00
2022-09-07T02:53:39.504Z,100.00
2022-09-07T02:56:18.432Z,100.00
2022-09-07T02:58:58.405Z,100.00
2022-09-07T03:01:43.610Z,100.00
2022-09-07T03:04:19.488Z,100.00
2022-09-07T03:06:59.563Z,100.00
2022-09-07T03:09:30.650Z,100.00
2022-09-07T03:11:57.761Z,100.00
2022-09-07T03:14:26.417Z,100.00
2022-09-07T03:16:57.176Z,100.00
2022-09-07T03:19:26.696Z,100.00
2022-09-07T03:21:53.492Z,100.00
2022-09-07T03:24:20.206Z,100.00
2022-09-07T03:26:52.164Z,100.00
2022-09-07T03:29:19.412Z,100.00
2022-09-07T03:31:46.582Z,100.00
2022-09-07T03:34:13.323Z,100.00
2022-09-07T03:36:40.634Z,100.00
2022-09-07T03:39:07.559Z,100.00
2022-09-07T03:41:42.209Z,100.00
2022-09-07T03:44:09.063Z,100.00
2022-09-07T03:46:35.876Z,100.00
2022-09-07T03:49:02.706Z,100.00
2022-09-07T03:51:29.533Z,100.00
2022-09-07T03:53:56.314Z,100.00
2022-09-07T03:56:24.907Z,100.00
2022-09-07T03:58:53.574Z,100.00
2022-09-07T04:01:24.683Z,100.00
2022-09-07T04:03:52.327Z,100.00
2022-09-07T04:06:19.901Z,100.00
2022-09-07T04:08:46.763Z,100.00
2022-09-07T04:11:16.434Z,100.00
2022-09-07T04:13:44.001Z,100.00
2022-09-07T04:16:18.226Z,100.00
2022-09-07T04:18:51.891Z,100.00
2022-09-07T04:21:19.046Z,100.00
2022-09-07T04:23:45.916Z,100.00
2022-09-07T04:26:21.692Z,100.00
2022-09-07T04:28:48.893Z,100.00
2022-09-07T04:31:17.115Z,100.00
2022-09-07T04:33:47.867Z,100.00
2022-09-07T04:36:15.988Z,100.00
2022-09-07T04:38:43.143Z,100.00
2022-09-07T04:41:13.825Z,100.00
2022-09-07T04:43:41.518Z,100.00
2022-09-07T04:46:21.955Z,100.00
2022-09-07T04:48:50.711Z,100.00
2022-09-07T04:51:18.386Z,100.00
2022-09-07T04:53:51.487Z,100.00
2022-09-07T04:56:26.878Z,100.00
2022-09-07T04:58:53.703Z,100.00
2022-09-07T05:01:33.084Z,100.00
2022-09-07T05:04:01.571Z,100.00
2022-09-07T05:06:28.725Z,100.00
2022-09-07T05:08:56.248Z,100.00
2022-09-07T05:11:28.764Z,100.00
2022-09-07T05:14:00.841Z,100.00
2022-09-07T05:16:28.512Z,100.00
2022-09-07T05:18:58.527Z,100.00
2022-09-07T05:21:28.553Z,100.00
2022-09-07T05:23:57.495Z,100.00
2022-09-07T05:26:26.994Z,100.00
2022-09-07T05:31:41.258Z,100.00
2022-09-07T05:34:35.769Z,100.00
2022-09-07T05:37:02.645Z,100.00
2022-09-07T05:39:30.270Z,100.00
2022-09-07T05:41:57.143Z,100.00
2022-09-07T05:47:11.251Z,100.00
2022-09-07T05:49:38.189Z,100.00
2022-09-07T05:52:04.974Z,100.00
2022-09-07T05:54:31.827Z,100.00
2022-09-07T05:56:58.637Z,100.00
2022-09-07T05:59:25.421Z,100.00
2022-09-07T06:01:52.397Z,100.00
2022-09-07T06:04:19.735Z,100.00
2022-09-07T06:07:04.669Z,100.00
2022-09-07T06:09:33.662Z,100.00
2022-09-07T06:12:00.566Z,100.00
2022-09-07T06:14:27.559Z,100.00
2022-09-07T06:16:54.348Z,100.00
2022-09-07T06:19:21.388Z,100.00
2022-09-07T06:21:48.363Z,100.00
2022-09-07T06:24:15.231Z,100.00
2022-09-07T06:26:42.091Z,100.00
2022-09-07T06:29:11.927Z,100.00
2022-09-07T06:34:26.498Z,100.00
2022-09-07T06:36:53.301Z,100.00
2022-09-07T06:39:20.123Z,100.00
2022-09-07T06:42:02.348Z,100.00
2022-09-07T06:44:29.266Z,100.00
2022-09-07T06:47:03.967Z,100.00
2022-09-07T06:49:31.421Z,100.00
2022-09-07T06:51:58.184Z,100.00
2022-09-07T06:57:11.824Z,100.00
2022-09-07T06:59:39.213Z,100.00
2022-09-07T07:02:07.183Z,100.00
2022-09-07T07:04:39.589Z,100.00
2022-09-07T07:07:11.846Z,100.00
2022-09-07T07:09:39.132Z,100.00
2022-09-07T07:12:06.074Z,100.00
2022-09-07T07:14:34.619Z,100.00
2022-09-07T07:17:02.376Z,100.00
2022-09-07T07:19:29.258Z,100.00
2022-09-07T07:22:29.640Z,100.00
2022-09-07T07:24:42.770Z,100.00
2022-09-07T07:27:09.714Z,100.00
2022-09-07T07:29:37.543Z,100.00
2022-09-07T07:32:04.464Z,100.00
2022-09-07T07:34:31.306Z,100.00
2022-09-07T07:36:58.141Z,100.00
2022-09-07T07:42:26.443Z,100.00
2022-09-07T07:48:13.823Z,100.00
2022-09-07T07:51:11.863Z,97.66
2022-09-07T07:53:42.440Z,98.17
2022-09-07T07:56:10.482Z,95.66
2022-09-07T07:58:38.442Z,96.35
2022-09-07T08:01:08.269Z,96.08
2022-09-07T08:03:36.632Z,96.39
2022-09-07T08:06:09.177Z,94.46
2022-09-07T08:08:37.553Z,92.44
2022-09-07T08:11:24.563Z,86.52
2022-09-07T08:13:51.918Z,82.89
2022-09-07T08:16:19.221Z,84.77
2022-09-07T08:18:47.103Z,83.06
2022-09-07T08:21:16.025Z,87.80
2022-09-07T08:23:43.188Z,83.54
2022-09-07T08:26:10.294Z,83.46
2022-09-07T08:28:39.363Z,79.84
2022-09-07T08:31:08.458Z,77.97
2022-09-07T08:33:37.796Z,79.94
2022-09-07T08:36:07.356Z,76.58
2022-09-07T08:38:34.994Z,77.93
2022-09-07T08:41:04.053Z,75.47
2022-09-07T08:43:50.295Z,73.06
2022-09-07T08:46:32.311Z,72.75
2022-09-07T08:49:01.412Z,71.63
2022-09-07T08:51:43.421Z,70.79
2022-09-07T08:54:15.142Z,68.80
2022-09-07T09:00:05.712Z,66.76
2022-09-07T09:02:36.539Z,67.03
2022-09-07T09:05:19.435Z,67.50
2022-09-07T09:08:27.726Z,67.34
2022-09-07T09:11:16.444Z,68.84
2022-09-07T09:14:10.360Z,70.61
2022-09-07T09:17:01.047Z,70.37
2022-09-07T09:19:42.997Z,66.46
2022-09-07T09:22:20.495Z,67.38
2022-09-07T09:24:57.313Z,64.34
2022-09-07T09:27:24.032Z,64.65
2022-09-07T09:29:50.693Z,66.60
2022-09-07T09:32:40.010Z,66.09
2022-09-07T09:35:23.502Z,62.85
2022-09-07T09:37:50.235Z,62.09
2022-09-07T09:40:31.388Z,59.66
2022-09-07T09:43:01.942Z,58.93
2022-09-07T09:46:12.266Z,60.53
2022-09-07T09:48:32.261Z,60.90
2022-09-07T09:53:57.855Z,60.58
2022-09-07T09:56:45.493Z,63.77
2022-09-07T10:05:26.617Z,60.05
2022-09-07T10:07:54.049Z,60.15
2022-09-07T10:10:21.662Z,58.70
2022-09-07T10:12:54.184Z,57.32
2022-09-07T10:15:41.380Z,55.93
2022-09-07T10:18:18.861Z,55.16
2022-09-07T10:20:45.773Z,53.35
2022-09-07T10:23:24.228Z,56.41
2022-09-07T10:25:51.401Z,54.67
2022-09-07T10:28:21.299Z,53.84
2022-09-07T10:30:48.111Z,53.72
2022-09-07T10:33:24.453Z,53.31
2022-09-07T10:36:00.592Z,53.93
2022-09-07T10:38:32.325Z,54.35
2022-09-07T10:41:09.713Z,53.75
2022-09-07T10:43:45.941Z,57.58
2022-09-07T10:49:23.584Z,54.84
2022-09-07T10:52:09.427Z,54.86
2022-09-07T10:54:59.625Z,57.16
2022-09-07T10:57:52.179Z,54.71
2022-09-07T11:00:21.593Z,56.08
2022-09-07T11:03:26.404Z,57.33
2022-09-07T11:06:14.096Z,57.76
2022-09-07T11:09:17.216Z,53.68
2022-09-07T11:12:07.389Z,52.67
2022-09-07T11:14:44.688Z,52.08
2022-09-07T11:17:19.173Z,49.86
2022-09-07T11:19:57.534Z,48.76
2022-09-07T11:22:40.046Z,48.92
2022-09-07T11:25:30.332Z,48.24
2022-09-07T11:28:07.804Z,49.40
2022-09-07T11:30:47.850Z,49.25
2022-09-07T11:33:24.446Z,49.17
2022-09-07T11:36:02.316Z,51.20
2022-09-07T11:38:45.247Z,52.13
2022-09-07T11:41:21.015Z,49.11
2022-09-07T11:44:00.992Z,46.62
2022-09-07T11:46:50.458Z,45.14
2022-09-07T11:49:24.919Z,46.11
2022-09-07T11:52:10.846Z,47.21
2022-09-07T11:55:06.526Z,45.12
2022-09-07T11:58:07.375Z,47.87
2022-09-07T12:00:37.129Z,48.09
2022-09-07T12:03:23.445Z,47.83
2022-09-07T12:06:11.551Z,47.98
2022-09-07T12:08:56.567Z,45.54
2022-09-07T12:11:23.630Z,47.85
2022-09-07T12:14:12.015Z,48.06
2022-09-07T12:16:57.019Z,48.35
2022-09-07T12:19:26.648Z,46.87
2022-09-07T12:21:53.311Z,47.69
2022-09-07T12:24:41.282Z,48.27
2022-09-07T12:27:19.924Z,45.89
2022-09-07T12:29:48.710Z,48.42
2022-09-07T12:32:58.383Z,46.88
2022-09-07T12:35:28.598Z,46.41
2022-09-07T12:38:17.427Z,47.87
2022-09-07T12:40:58.871Z,46.84
2022-09-07T12:43:55.425Z,49.80
2022-09-07T12:46:35.143Z,50.55
2022-09-07T12:49:14.026Z,51.16
2022-09-07T12:54:37.972Z,51.45
2022-09-07T12:57:29.654Z,53.33
2022-09-07T12:59:56.549Z,54.52
2022-09-07T13:02:42.093Z,55.99
2022-09-07T13:05:24.201Z,54.66
2022-09-07T13:08:27.997Z,55.64
2022-09-07T13:10:54.849Z,55.05
2022-09-07T13:16:17.643Z,51.37
2022-09-07T13:18:46.681Z,50.29
2022-09-07T13:21:15.070Z,48.86
2022-09-07T13:23:45.527Z,50.09
2022-09-07T13:26:34.107Z,51.34
2022-09-07T13:29:11.591Z,51.46
2022-09-07T13:32:05.574Z,52.88
2022-09-07T13:34:32.343Z,51.86
2022-09-07T13:37:00.662Z,51.98
2022-09-07T13:39:29.234Z,53.60
2022-09-07T13:41:58.418Z,55.08
2022-09-07T13:44:27.371Z,52.67
2022-09-07T13:47:07.552Z,50.41
2022-09-07T13:50:00.528Z,52.51
2022-09-07T13:53:02.966Z,51.68
2022-09-07T13:55:43.403Z,52.11
2022-09-07T13:58:39.425Z,50.36
2022-09-07T14:01:16.266Z,52.13
2022-09-07T14:04:09.572Z,57.39
2022-09-07T14:06:38.252Z,54.92
2022-09-07T14:09:07.171Z,52.29
2022-09-07T14:11:55.139Z,53.77
2022-09-07T14:14:26.316Z,51.68
2022-09-07T14:17:06.332Z,51.48
2022-09-07T14:19:41.000Z,50.86
2022-09-07T14:22:27.937Z,51.94
2022-09-07T14:24:59.822Z,51.64
2022-09-07T14:27:35.874Z,50.60
2022-09-07T14:30:21.937Z,49.29
2022-09-07T14:32:52.608Z,47.19
2022-09-07T14:35:22.588Z,49.99
2022-09-07T14:37:50.950Z,48.91
2022-09-07T14:40:21.992Z,49.61
2022-09-07T14:42:55.917Z,49.69
2022-09-07T14:45:22.592Z,48.81
2022-09-07T14:47:55.263Z,47.14
2022-09-07T14:50:31.277Z,46.96
2022-09-07T14:55:47.155Z,49.34
2022-09-07T14:58:13.860Z,51.77
2022-09-07T15:03:38.758Z,56.62
2022-09-07T15:06:06.959Z,53.37
2022-09-07T15:08:41.380Z,59.95
2022-09-07T15:14:18.228Z,63.64
2022-09-07T15:19:44.501Z,66.24
2022-09-07T15:22:13.361Z,65.20
2022-09-07T15:24:40.217Z,64.56
2022-09-07T15:27:21.852Z,65.57
2022-09-07T15:29:48.597Z,65.00
2022-09-07T15:32:17.987Z,65.96
2022-09-07T15:34:45.117Z,65.70
2022-09-07T15:39:58.848Z,62.49
2022-09-07T15:45:13.150Z,63.03
2022-09-07T15:47:47.034Z,61.37
2022-09-07T15:50:18.116Z,60.14
2022-09-07T15:52:46.338Z,55.08
2022-09-07T15:55:14.455Z,57.59
2022-09-07T15:57:59.524Z,56.90
2022-09-07T16:00:30.692Z,59.87
2022-09-07T16:03:06.833Z,61.59
2022-09-07T16:05:34.634Z,62.92
2022-09-07T16:11:05.397Z,64.99
2022-09-07T16:13:33.198Z,65.19
2022-09-07T16:16:00.340Z,65.68
2022-09-07T16:18:31.263Z,67.84
2022-09-07T16:21:11.822Z,68.17
2022-09-07T16:23:41.296Z,68.57
2022-09-07T16:26:10.651Z,68.47
2022-09-07T16:28:38.323Z,69.73
2022-09-07T16:31:07.714Z,67.50
2022-09-07T16:33:37.033Z,69.01
2022-09-07T16:36:17.050Z,68.91
2022-09-07T16:38:48.452Z,68.97
2022-09-07T16:41:20.447Z,70.67
2022-09-07T16:43:58.662Z,74.78
2022-09-07T16:46:27.700Z,76.79
2022-09-07T16:48:54.800Z,78.85
2022-09-07T16:51:22.922Z,83.17
2022-09-07T16:53:52.111Z,80.21
2022-09-07T16:56:21.137Z,81.43
2022-09-07T16:58:50.310Z,85.39
2022-09-07T17:01:19.906Z,88.58
2022-09-07T17:03:46.952Z,87.29
2022-09-07T17:06:14.302Z,85.93
2022-09-07T17:08:41.491Z,89.21
2022-09-07T17:11:13.130Z,91.06
2022-09-07T17:13:41.565Z,91.78
2022-09-07T17:16:22.432Z,92.42
2022-09-07T17:21:39.099Z,93.79
2022-09-07T17:24:07.282Z,94.46
2022-09-07T17:26:34.751Z,92.06
2022-09-07T17:29:01.847Z,92.12
2022-09-07T17:34:19.823Z,96.04
2022-09-07T17:36:46.867Z,97.25
2022-09-07T17:39:15.297Z,100.00
2022-09-07T17:41:43.481Z,100.00
2022-09-07T17:44:10.200Z,100.00
2022-09-07T17:46:37.061Z,100.00
2022-09-07T17:49:04.135Z,100.00
2022-09-07T17:51:32.614Z,100.00
2022-09-07T17:54:12.649Z,100.00
2022-09-07T17:56:41.306Z,100.00
2022-09-07T18:01:56.290Z,100.00
2022-09-07T18:04:23.686Z,100.00
2022-09-07T18:06:51.044Z,100.00
2022-09-07T18:09:20.156Z,100.00
2022-09-07T18:11:48.966Z,100.00
2022-09-07T18:14:16.902Z,100.00
2022-09-07T18:16:46.385Z,100.00
2022-09-07T18:19:14.295Z,100.00
2022-09-07T18:21:44.305Z,100.00
2022-09-07T18:24:18.964Z,100.00
2022-09-07T18:26:52.259Z,100.00
2022-09-07T18:29:32.382Z,100.00
2022-09-07T18:32:02.696Z,100.00
2022-09-07T18:34:29.843Z,100.00
2022-09-07T18:36:58.572Z,100.00
2022-09-07T18:39:27.135Z,100.00
2022-09-07T18:41:55.464Z,100.00
2022-09-07T18:47:17.518Z,100.00
2022-09-07T18:49:49.174Z,100.00
2022-09-07T18:55:04.074Z,100.00
2022-09-07T18:57:32.216Z,100.00
2022-09-07T18:59:59.282Z,100.00
2022-09-07T19:02:26.856Z,100.00
2022-09-07T19:07:42.321Z,100.00
2022-09-07T19:10:13.885Z,100.00
2022-09-07T19:12:46.442Z,100.00
2022-09-07T19:15:19.950Z,100.00
2022-09-07T19:17:48.612Z,100.00
2022-09-07T19:20:15.883Z,100.00
2022-09-07T19:22:43.225Z,100.00
2022-09-07T19:25:10.981Z,100.00
2022-09-07T19:27:38.322Z,100.00
2022-09-07T19:30:06.125Z,100.00
2022-09-07T19:32:33.525Z,100.00
2022-09-07T19:35:00.677Z,100.00
2022-09-07T19:37:29.474Z,100.00
2022-09-07T19:39:56.318Z,100.00
2022-09-07T19:42:24.980Z,100.00
2022-09-07T19:44:53.273Z,100.00
2022-09-07T19:47:21.274Z,100.00
2022-09-07T19:49:48.394Z,100.00
2022-09-07T19:52:15.886Z,100.00
2022-09-07T19:54:43.065Z,100.00
2022-09-07T19:57:11.133Z,100.00
2022-09-07T19:59:38.303Z,100.00
2022-09-07T20:02:06.684Z,100.00
2022-09-07T20:04:34.332Z,100.00
2022-09-07T20:07:01.762Z,100.00
2022-09-07T20:09:28.824Z,100.00
2022-09-07T20:11:55.703Z,100.00
2022-09-07T20:14:22.827Z,100.00
2022-09-07T20:16:50.125Z,100.00
2022-09-07T20:19:17.709Z,100.00
2022-09-07T20:21:44.927Z,100.00
2022-09-07T20:24:13.116Z,100.00
2022-09-07T20:26:40.021Z,100.00
2022-09-07T20:29:26.087Z,100.00
2022-09-07T20:31:54.699Z,100.00
2022-09-07T20:34:22.591Z,100.00
2022-09-07T20:36:50.482Z,100.00
2022-09-07T20:39:17.525Z,100.00
2022-09-07T20:41:44.625Z,100.00
2022-09-07T20:44:14.383Z,100.00
2022-09-07T20:46:41.493Z,100.00
2022-09-07T20:49:09.209Z,100.00
2022-09-07T20:51:40.429Z,100.00
2022-09-07T20:54:08.525Z,100.00
2022-09-07T20:56:35.427Z,100.00
2022-09-07T20:59:04.076Z,100.00
2022-09-07T21:01:32.703Z,100.00
2022-09-07T21:04:00.894Z,100.00
2022-09-07T21:06:29.098Z,100.00
2022-09-07T21:08:57.397Z,100.00
2022-09-07T21:11:29.285Z,100.00
2022-09-07T21:14:01.233Z,100.00
2022-09-07T21:16:28.838Z,100.00
2022-09-07T21:18:57.945Z,100.00
2022-09-07T21:21:26.675Z,100.00
2022-09-07T21:23:58.145Z,100.00
2022-09-07T21:26:26.492Z,100.00
2022-09-07T21:29:02.272Z,100.00
2022-09-07T21:31:31.606Z,100.00
2022-09-07T21:34:01.062Z,100.00
2022-09-07T21:36:28.545Z,100.00
2022-09-07T21:38:55.993Z,100.00
2022-09-07T21:41:24.668Z,100.00
2022-09-07T21:43:56.289Z,100.00
2022-09-07T21:46:23.489Z,100.00
2022-09-07T21:48:58.393Z,100.00
2022-09-07T21:51:26.286Z,100.00
2022-09-07T21:53:54.945Z,100.00
2022-09-07T21:56:29.092Z,100.00
2022-09-07T21:58:57.535Z,100.00
2022-09-07T22:01:26.231Z,100.00
2022-09-07T22:03:57.645Z,100.00
2022-09-07T22:06:25.183Z,100.00
2022-09-07T22:08:51.992Z,100.00
2022-09-07T22:11:21.677Z,100.00
2022-09-07T22:13:48.453Z,100.00
2022-09-07T22:16:15.723Z,100.00
2022-09-07T22:18:44.873Z,100.00
2022-09-07T22:21:15.948Z,100.00
2022-09-07T22:23:51.163Z,100.00
2022-09-07T22:26:20.899Z,100.00
2022-09-07T22:28:47.983Z,100.00
2022-09-07T22:31:17.055Z,100.00
2022-09-07T22:33:45.334Z,100.00
2022-09-07T22:36:19.788Z,100.00
2022-09-07T22:38:49.055Z,100.00
2022-09-07T22:41:21.072Z,100.00
2022-09-07T22:43:50.128Z,100.00
2022-09-07T22:46:19.038Z,100.00
2022-09-07T22:48:46.408Z,100.00
2022-09-07T22:51:13.200Z,100.00
2022-09-07T22:53:41.586Z,100.00
2022-09-07T22:56:10.817Z,100.00
2022-09-07T22:58:38.377Z,100.00
2022-09-07T23:03:35.928Z,100.00
2022-09-07T23:06:02.992Z,100.00
2022-09-07T23:08:30.210Z,100.00
2022-09-07T23:11:05.207Z,100.00
2022-09-07T23:13:33.287Z,100.00
2022-09-07T23:16:07.422Z,100.00
2022-09-07T23:18:40.082Z,100.00
2022-09-07T23:21:06.999Z,100.00
2022-09-07T23:23:33.769Z,100.00
2022-09-07T23:26:02.507Z,100.00
2022-09-07T23:28:30.254Z,100.00
2022-09-07T23:30:57.763Z,100.00
2022-09-07T23:33:30.977Z,100.00
2022-09-07T23:35:58.969Z,100.00
2022-09-07T23:38:26.406Z,100.00
2022-09-07T23:40:54.677Z,100.00
2022-09-07T23:43:22.612Z,100.00
2022-09-07T23:45:49.342Z,100.00
2022-09-07T23:48:16.653Z,100.00
2022-09-07T23:50:44.605Z,100.00
2022-09-07T23:53:12.206Z,100.00
2022-09-07T23:55:39.732Z,100.00
2022-09-07T23:58:07.797Z,100.00
